KDNL/DNL METAR and TAF weather

Enter ICAO airport designator
Station Type Date Time Source
KDNL METAR 2022/01/29 01:53 UTC NOAA

KDNL 290153Z AUTO 29016G26KT 10SM BKN065 07/M04 A2991 RMK AO2 PK WND 32027/0


Station Type Date Time Source
KDNL Decoded METAR 2022/01/29 01:53 UTC NOAA

AUGUSTA DANIEL FIELD, GA, United States (KDNL) 33-28N 82-02W 130M
Jan 28, 2022 - 08:53 PM EST / 2022.01.29 0153 UTC
Wind: from the WNW (290 degrees) at 18 MPH (16 KT) gusting to 30 MPH (26 KT):0
Visibility: 10 mile(s):0
Sky conditions: mostly cloudy
Temperature: 44.1 F (6.7 C)
Dew Point: 25.0 F (-3.9 C)
Relative Humidity: 46%
Pressure (altimeter): 29.91 in. Hg (1012 hPa)
ob: KDNL 290153Z AUTO 29016G26KT 10SM BKN065 07/M04 A2991 RMK AO2 PK WND 32027/0129 SLP129 T00671039
cycle: 2

Station Type Date Time Source
KDNL TAF 2022/01/29 00:16 UTC NOAA

TAF
AMD KDNL 290014Z 2900/2924 29020G32KT P6SM BKN060
FM290300 30015G25KT P6SM SCT015 BKN040
FM291000 30014G24KT P6SM SCT035
FM291400 31015G25KT P6SM SKC

Example: see airport list